sensor_id;sensor_type;location;lat;lon;timestamp;P1;durP1;ratioP1;P2;durP2;ratioP2
45366;SDS011;31100;55.848;37.636;2022-12-24T00:01:59;8.65;;;6.60;;
45366;SDS011;31100;55.848;37.636;2022-12-24T00:04:25;10.77;;;6.68;;
45366;SDS011;31100;55.848;37.636;2022-12-24T00:06:51;8.10;;;6.05;;
45366;SDS011;31100;55.848;37.636;2022-12-24T00:09:16;9.23;;;6.45;;
45366;SDS011;31100;55.848;37.636;2022-12-24T00:11:42;11.57;;;7.13;;
45366;SDS011;31100;55.848;37.636;2022-12-24T00:14:07;8.25;;;6.72;;
45366;SDS011;31100;55.848;37.636;2022-12-24T00:16:33;9.38;;;6.57;;
45366;SDS011;31100;55.848;37.636;2022-12-24T00:18:58;9.32;;;6.22;;
45366;SDS011;31100;55.848;37.636;2022-12-24T00:21:24;9.82;;;6.60;;
45366;SDS011;31100;55.848;37.636;2022-12-24T00:23:50;10.93;;;7.55;;
45366;SDS011;31100;55.848;37.636;2022-12-24T00:26:15;11.90;;;7.78;;
45366;SDS011;31100;55.848;37.636;2022-12-24T00:28:41;12.32;;;8.13;;
45366;SDS011;31100;55.848;37.636;2022-12-24T00:31:14;14.27;;;8.45;;
45366;SDS011;31100;55.848;37.636;2022-12-24T00:33:41;14.23;;;8.85;;
45366;SDS011;31100;55.848;37.636;2022-12-24T00:36:07;15.07;;;9.63;;
45366;SDS011;31100;55.848;37.636;2022-12-24T00:38:33;12.07;;;8.40;;
45366;SDS011;31100;55.848;37.636;2022-12-24T00:41:00;15.02;;;9.07;;
45366;SDS011;31100;55.848;37.636;2022-12-24T00:43:26;13.55;;;8.95;;
45366;SDS011;31100;55.848;37.636;2022-12-24T00:45:52;13.80;;;9.13;;
45366;SDS011;31100;55.848;37.636;2022-12-24T00:48:18;11.98;;;8.82;;
45366;SDS011;31100;55.848;37.636;2022-12-24T00:50:43;14.02;;;8.88;;
45366;SDS011;31100;55.848;37.636;2022-12-24T00:53:09;14.75;;;9.02;;
45366;SDS011;31100;55.848;37.636;2022-12-24T00:55:34;13.48;;;9.48;;
45366;SDS011;31100;55.848;37.636;2022-12-24T00:58:00;12.60;;;8.98;;
45366;SDS011;31100;55.848;37.636;2022-12-24T01:00:25;12.13;;;8.55;;
45366;SDS011;31100;55.848;37.636;2022-12-24T01:02:52;13.77;;;9.75;;
45366;SDS011;31100;55.848;37.636;2022-12-24T01:05:18;13.50;;;9.32;;
45366;SDS011;31100;55.848;37.636;2022-12-24T01:07:45;15.73;;;9.10;;
45366;SDS011;31100;55.848;37.636;2022-12-24T01:10:12;13.63;;;9.63;;
45366;SDS011;31100;55.848;37.636;2022-12-24T01:12:40;14.55;;;9.05;;
45366;SDS011;31100;55.848;37.636;2022-12-24T01:15:07;14.95;;;9.93;;
45366;SDS011;31100;55.848;37.636;2022-12-24T01:17:33;15.00;;;9.63;;
45366;SDS011;31100;55.848;37.636;2022-12-24T01:19:59;14.48;;;10.27;;
45366;SDS011;31100;55.848;37.636;2022-12-24T01:22:24;17.10;;;10.80;;
45366;SDS011;31100;55.848;37.636;2022-12-24T01:24:50;21.40;;;11.23;;
45366;SDS011;31100;55.848;37.636;2022-12-24T01:27:16;18.48;;;11.77;;
45366;SDS011;31100;55.848;37.636;2022-12-24T01:29:41;24.13;;;12.23;;
45366;SDS011;31100;55.848;37.636;2022-12-24T01:32:07;20.80;;;12.48;;
45366;SDS011;31100;55.848;37.636;2022-12-24T01:34:32;20.80;;;13.13;;
45366;SDS011;31100;55.848;37.636;2022-12-24T01:36:58;22.00;;;12.82;;
45366;SDS011;31100;55.848;37.636;2022-12-24T01:39:24;21.33;;;13.63;;
45366;SDS011;31100;55.848;37.636;2022-12-24T01:41:50;24.23;;;13.23;;
45366;SDS011;31100;55.848;37.636;2022-12-24T01:44:34;23.15;;;13.65;;
45366;SDS011;31100;55.848;37.636;2022-12-24T01:47:08;22.63;;;12.90;;
45366;SDS011;31100;55.848;37.636;2022-12-24T01:49:41;24.90;;;14.55;;
45366;SDS011;31100;55.848;37.636;2022-12-24T01:52:12;22.48;;;12.63;;
45366;SDS011;31100;55.848;37.636;2022-12-24T01:55:15;21.60;;;13.32;;
45366;SDS011;31100;55.848;37.636;2022-12-24T01:57:45;21.42;;;12.20;;
45366;SDS011;31100;55.848;37.636;2022-12-24T02:00:14;21.70;;;12.25;;
45366;SDS011;31100;55.848;37.636;2022-12-24T02:02:42;21.13;;;12.88;;
45366;SDS011;31100;55.848;37.636;2022-12-24T02:05:18;21.45;;;13.23;;
45366;SDS011;31100;55.848;37.636;2022-12-24T02:07:48;23.33;;;13.60;;
45366;SDS011;31100;55.848;37.636;2022-12-24T02:10:14;22.67;;;13.23;;
45366;SDS011;31100;55.848;37.636;2022-12-24T02:12:40;24.42;;;14.05;;
45366;SDS011;31100;55.848;37.636;2022-12-24T02:15:07;24.23;;;14.65;;
45366;SDS011;31100;55.848;37.636;2022-12-24T02:20:41;22.67;;;13.73;;
45366;SDS011;31100;55.848;37.636;2022-12-24T02:34:29;21.95;;;14.07;;
45366;SDS011;31100;55.848;37.636;2022-12-24T02:37:03;21.95;;;12.70;;
45366;SDS011;31100;55.848;37.636;2022-12-24T02:39:51;20.92;;;12.57;;
45366;SDS011;31100;55.848;37.636;2022-12-24T02:42:22;24.23;;;12.57;;
45366;SDS011;31100;55.848;37.636;2022-12-24T02:45:04;22.90;;;13.25;;
45366;SDS011;31100;55.848;37.636;2022-12-24T02:47:35;21.25;;;12.40;;
45366;SDS011;31100;55.848;37.636;2022-12-24T02:50:02;23.83;;;12.80;;
45366;SDS011;31100;55.848;37.636;2022-12-24T02:52:33;20.92;;;12.13;;
45366;SDS011;31100;55.848;37.636;2022-12-24T02:55:01;20.60;;;12.73;;
45366;SDS011;31100;55.848;37.636;2022-12-24T02:57:52;18.17;;;12.20;;
45366;SDS011;31100;55.848;37.636;2022-12-24T03:00:41;22.88;;;12.55;;
45366;SDS011;31100;55.848;37.636;2022-12-24T03:03:32;20.13;;;12.35;;
45366;SDS011;31100;55.848;37.636;2022-12-24T03:09:07;21.55;;;13.10;;
45366;SDS011;31100;55.848;37.636;2022-12-24T03:11:40;19.77;;;11.43;;
45366;SDS011;31100;55.848;37.636;2022-12-24T03:14:09;20.27;;;12.80;;
45366;SDS011;31100;55.848;37.636;2022-12-24T03:16:34;22.75;;;12.77;;
45366;SDS011;31100;55.848;37.636;2022-12-24T03:19:00;18.92;;;12.48;;
45366;SDS011;31100;55.848;37.636;2022-12-24T03:21:33;21.17;;;12.88;;
45366;SDS011;31100;55.848;37.636;2022-12-24T03:24:00;20.73;;;11.98;;
45366;SDS011;31100;55.848;37.636;2022-12-24T03:26:25;22.15;;;12.90;;
45366;SDS011;31100;55.848;37.636;2022-12-24T03:28:53;23.02;;;12.90;;
45366;SDS011;31100;55.848;37.636;2022-12-24T03:31:19;21.17;;;13.45;;
45366;SDS011;31100;55.848;37.636;2022-12-24T03:33:45;21.17;;;12.88;;
45366;SDS011;31100;55.848;37.636;2022-12-24T03:36:10;21.50;;;12.52;;
45366;SDS011;31100;55.848;37.636;2022-12-24T03:38:36;19.25;;;12.23;;
45366;SDS011;31100;55.848;37.636;2022-12-24T03:41:02;23.38;;;14.35;;
45366;SDS011;31100;55.848;37.636;2022-12-24T03:43:28;22.70;;;13.30;;
45366;SDS011;31100;55.848;37.636;2022-12-24T03:45:53;19.52;;;12.88;;
45366;SDS011;31100;55.848;37.636;2022-12-24T03:48:19;19.95;;;12.23;;
45366;SDS011;31100;55.848;37.636;2022-12-24T03:50:44;19.02;;;12.88;;
45366;SDS011;31100;55.848;37.636;2022-12-24T03:53:10;21.58;;;12.50;;
45366;SDS011;31100;55.848;37.636;2022-12-24T03:55:36;21.80;;;13.88;;
45366;SDS011;31100;55.848;37.636;2022-12-24T03:58:03;24.77;;;13.48;;
45366;SDS011;31100;55.848;37.636;2022-12-24T04:00:28;23.02;;;13.52;;
45366;SDS011;31100;55.848;37.636;2022-12-24T04:02:54;23.10;;;14.23;;
45366;SDS011;31100;55.848;37.636;2022-12-24T04:05:20;21.52;;;13.68;;
45366;SDS011;31100;55.848;37.636;2022-12-24T04:07:45;22.00;;;13.70;;
45366;SDS011;31100;55.848;37.636;2022-12-24T04:10:12;22.13;;;13.45;;
45366;SDS011;31100;55.848;37.636;2022-12-24T04:12:38;23.83;;;13.45;;
45366;SDS011;31100;55.848;37.636;2022-12-24T04:15:04;24.13;;;14.10;;
45366;SDS011;31100;55.848;37.636;2022-12-24T04:17:30;24.75;;;14.68;;
45366;SDS011;31100;55.848;37.636;2022-12-24T04:19:56;25.27;;;14.90;;
45366;SDS011;31100;55.848;37.636;2022-12-24T04:22:21;22.90;;;14.35;;
45366;SDS011;31100;55.848;37.636;2022-12-24T04:24:47;23.77;;;13.80;;
45366;SDS011;31100;55.848;37.636;2022-12-24T04:27:13;25.13;;;13.93;;
45366;SDS011;31100;55.848;37.636;2022-12-24T04:29:39;24.42;;;14.95;;
45366;SDS011;31100;55.848;37.636;2022-12-24T04:32:04;29.33;;;16.85;;
45366;SDS011;31100;55.848;37.636;2022-12-24T04:34:30;24.77;;;15.27;;
45366;SDS011;31100;55.848;37.636;2022-12-24T04:36:55;28.25;;;15.50;;
45366;SDS011;31100;55.848;37.636;2022-12-24T04:39:21;25.20;;;15.50;;
45366;SDS011;31100;55.848;37.636;2022-12-24T04:41:46;27.13;;;15.38;;
45366;SDS011;31100;55.848;37.636;2022-12-24T04:44:12;24.70;;;14.70;;
45366;SDS011;31100;55.848;37.636;2022-12-24T04:46:37;26.60;;;15.27;;
45366;SDS011;31100;55.848;37.636;2022-12-24T04:49:03;24.02;;;14.50;;
45366;SDS011;31100;55.848;37.636;2022-12-24T04:51:29;23.75;;;13.82;;
45366;SDS011;31100;55.848;37.636;2022-12-24T04:53:54;25.60;;;14.98;;
45366;SDS011;31100;55.848;37.636;2022-12-24T04:56:21;24.77;;;13.82;;
45366;SDS011;31100;55.848;37.636;2022-12-24T04:58:51;23.25;;;13.10;;
45366;SDS011;31100;55.848;37.636;2022-12-24T05:01:19;22.48;;;13.82;;
45366;SDS011;31100;55.848;37.636;2022-12-24T05:03:46;23.73;;;14.23;;
45366;SDS011;31100;55.848;37.636;2022-12-24T05:06:13;25.35;;;14.13;;
45366;SDS011;31100;55.848;37.636;2022-12-24T05:08:40;23.85;;;13.93;;
45366;SDS011;31100;55.848;37.636;2022-12-24T05:11:05;22.73;;;13.40;;
45366;SDS011;31100;55.848;37.636;2022-12-24T05:13:32;23.10;;;14.23;;
45366;SDS011;31100;55.848;37.636;2022-12-24T05:15:58;22.02;;;13.65;;
45366;SDS011;31100;55.848;37.636;2022-12-24T05:18:24;21.85;;;13.77;;
45366;SDS011;31100;55.848;37.636;2022-12-24T05:20:49;26.75;;;13.32;;
45366;SDS011;31100;55.848;37.636;2022-12-24T05:23:16;24.10;;;13.57;;
45366;SDS011;31100;55.848;37.636;2022-12-24T05:26:01;22.75;;;13.63;;
45366;SDS011;31100;55.848;37.636;2022-12-24T05:28:45;24.52;;;14.27;;
45366;SDS011;31100;55.848;37.636;2022-12-24T05:31:11;26.67;;;14.52;;
45366;SDS011;31100;55.848;37.636;2022-12-24T05:33:37;25.30;;;14.50;;
45366;SDS011;31100;55.848;37.636;2022-12-24T05:36:02;26.27;;;14.85;;
45366;SDS011;31100;55.848;37.636;2022-12-24T05:38:28;25.65;;;15.57;;
45366;SDS011;31100;55.848;37.636;2022-12-24T05:40:53;30.13;;;14.93;;
45366;SDS011;31100;55.848;37.636;2022-12-24T05:43:19;24.10;;;14.48;;
45366;SDS011;31100;55.848;37.636;2022-12-24T05:45:44;26.73;;;15.27;;
45366;SDS011;31100;55.848;37.636;2022-12-24T05:48:10;27.60;;;15.07;;
45366;SDS011;31100;55.848;37.636;2022-12-24T05:50:37;28.88;;;16.20;;
45366;SDS011;31100;55.848;37.636;2022-12-24T05:53:04;28.38;;;16.60;;
45366;SDS011;31100;55.848;37.636;2022-12-24T05:55:30;36.20;;;17.40;;
45366;SDS011;31100;55.848;37.636;2022-12-24T05:57:55;25.88;;;16.33;;
45366;SDS011;31100;55.848;37.636;2022-12-24T06:00:21;30.05;;;15.75;;
45366;SDS011;31100;55.848;37.636;2022-12-24T06:02:46;27.85;;;15.95;;
45366;SDS011;31100;55.848;37.636;2022-12-24T06:05:12;30.98;;;16.73;;
45366;SDS011;31100;55.848;37.636;2022-12-24T06:07:37;28.80;;;16.30;;
45366;SDS011;31100;55.848;37.636;2022-12-24T06:10:03;27.42;;;16.80;;
45366;SDS011;31100;55.848;37.636;2022-12-24T06:12:33;28.60;;;15.57;;
45366;SDS011;31100;55.848;37.636;2022-12-24T06:14:59;29.15;;;16.73;;
45366;SDS011;31100;55.848;37.636;2022-12-24T06:17:24;26.58;;;16.23;;
45366;SDS011;31100;55.848;37.636;2022-12-24T06:19:50;29.85;;;16.52;;
45366;SDS011;31100;55.848;37.636;2022-12-24T06:22:16;26.80;;;15.93;;
45366;SDS011;31100;55.848;37.636;2022-12-24T06:24:41;27.63;;;14.82;;
45366;SDS011;31100;55.848;37.636;2022-12-24T06:27:07;25.60;;;14.68;;
45366;SDS011;31100;55.848;37.636;2022-12-24T06:29:32;23.27;;;14.10;;
45366;SDS011;31100;55.848;37.636;2022-12-24T06:31:58;22.77;;;13.65;;
45366;SDS011;31100;55.848;37.636;2022-12-24T06:34:23;26.50;;;14.20;;
45366;SDS011;31100;55.848;37.636;2022-12-24T06:36:49;22.52;;;13.85;;
45366;SDS011;31100;55.848;37.636;2022-12-24T06:39:14;25.10;;;14.95;;
45366;SDS011;31100;55.848;37.636;2022-12-24T06:41:40;24.83;;;14.75;;
45366;SDS011;31100;55.848;37.636;2022-12-24T06:44:05;24.98;;;15.18;;
45366;SDS011;31100;55.848;37.636;2022-12-24T06:46:31;22.70;;;14.20;;
45366;SDS011;31100;55.848;37.636;2022-12-24T06:48:56;24.25;;;13.68;;
45366;SDS011;31100;55.848;37.636;2022-12-24T06:51:22;24.70;;;13.27;;
45366;SDS011;31100;55.848;37.636;2022-12-24T06:53:48;23.98;;;14.13;;
45366;SDS011;31100;55.848;37.636;2022-12-24T06:56:16;22.95;;;13.18;;
45366;SDS011;31100;55.848;37.636;2022-12-24T06:58:43;22.83;;;13.70;;
45366;SDS011;31100;55.848;37.636;2022-12-24T07:01:13;23.35;;;13.48;;
45366;SDS011;31100;55.848;37.636;2022-12-24T07:03:39;26.80;;;13.68;;
45366;SDS011;31100;55.848;37.636;2022-12-24T07:06:05;25.05;;;15.32;;
45366;SDS011;31100;55.848;37.636;2022-12-24T07:08:31;22.25;;;14.35;;
45366;SDS011;31100;55.848;37.636;2022-12-24T07:11:00;22.73;;;13.27;;
45366;SDS011;31100;55.848;37.636;2022-12-24T07:13:26;25.88;;;13.93;;
45366;SDS011;31100;55.848;37.636;2022-12-24T07:15:58;26.02;;;14.18;;
45366;SDS011;31100;55.848;37.636;2022-12-24T07:18:24;21.58;;;12.98;;
45366;SDS011;31100;55.848;37.636;2022-12-24T07:20:50;26.77;;;13.45;;
45366;SDS011;31100;55.848;37.636;2022-12-24T07:23:15;27.23;;;14.35;;
45366;SDS011;31100;55.848;37.636;2022-12-24T07:25:41;25.38;;;14.27;;
45366;SDS011;31100;55.848;37.636;2022-12-24T07:28:10;24.63;;;14.05;;
45366;SDS011;31100;55.848;37.636;2022-12-24T07:30:36;25.70;;;13.85;;
45366;SDS011;31100;55.848;37.636;2022-12-24T07:33:01;25.55;;;13.32;;
45366;SDS011;31100;55.848;37.636;2022-12-24T07:35:27;25.17;;;14.27;;
45366;SDS011;31100;55.848;37.636;2022-12-24T07:37:53;28.63;;;14.65;;
45366;SDS011;31100;55.848;37.636;2022-12-24T07:40:18;24.90;;;13.57;;
45366;SDS011;31100;55.848;37.636;2022-12-24T07:42:44;24.95;;;13.30;;
45366;SDS011;31100;55.848;37.636;2022-12-24T07:45:09;27.08;;;15.73;;
45366;SDS011;31100;55.848;37.636;2022-12-24T07:47:35;24.83;;;14.82;;
45366;SDS011;31100;55.848;37.636;2022-12-24T07:50:02;26.95;;;14.70;;
45366;SDS011;31100;55.848;37.636;2022-12-24T07:52:28;27.13;;;14.18;;
45366;SDS011;31100;55.848;37.636;2022-12-24T07:54:57;27.10;;;15.60;;
45366;SDS011;31100;55.848;37.636;2022-12-24T07:57:23;26.27;;;14.15;;
45366;SDS011;31100;55.848;37.636;2022-12-24T07:59:48;26.17;;;14.90;;
45366;SDS011;31100;55.848;37.636;2022-12-24T08:02:14;25.92;;;14.15;;
45366;SDS011;31100;55.848;37.636;2022-12-24T08:04:45;29.52;;;15.10;;
45366;SDS011;31100;55.848;37.636;2022-12-24T08:07:11;27.55;;;14.45;;
45366;SDS011;31100;55.848;37.636;2022-12-24T08:09:37;22.83;;;14.13;;
45366;SDS011;31100;55.848;37.636;2022-12-24T08:12:03;23.85;;;14.60;;
45366;SDS011;31100;55.848;37.636;2022-12-24T08:14:29;22.52;;;12.88;;
45366;SDS011;31100;55.848;37.636;2022-12-24T08:16:55;24.38;;;12.30;;
45366;SDS011;31100;55.848;37.636;2022-12-24T08:19:22;22.23;;;12.75;;
45366;SDS011;31100;55.848;37.636;2022-12-24T08:21:48;19.77;;;10.88;;
45366;SDS011;31100;55.848;37.636;2022-12-24T08:24:13;19.08;;;10.43;;
45366;SDS011;31100;55.848;37.636;2022-12-24T08:26:39;19.92;;;11.63;;
45366;SDS011;31100;55.848;37.636;2022-12-24T08:29:06;24.10;;;11.60;;
45366;SDS011;31100;55.848;37.636;2022-12-24T08:31:32;23.20;;;12.55;;
45366;SDS011;31100;55.848;37.636;2022-12-24T08:34:04;19.67;;;12.18;;
45366;SDS011;31100;55.848;37.636;2022-12-24T08:36:31;19.25;;;11.93;;
45366;SDS011;31100;55.848;37.636;2022-12-24T08:38:58;20.38;;;12.25;;
45366;SDS011;31100;55.848;37.636;2022-12-24T08:41:30;21.10;;;11.38;;
45366;SDS011;31100;55.848;37.636;2022-12-24T08:43:56;19.25;;;11.15;;
45366;SDS011;31100;55.848;37.636;2022-12-24T08:46:22;19.63;;;10.30;;
45366;SDS011;31100;55.848;37.636;2022-12-24T08:48:47;21.40;;;12.27;;
45366;SDS011;31100;55.848;37.636;2022-12-24T08:51:13;17.48;;;9.60;;
45366;SDS011;31100;55.848;37.636;2022-12-24T08:53:38;17.30;;;9.40;;
45366;SDS011;31100;55.848;37.636;2022-12-24T08:56:05;21.63;;;12.10;;
45366;SDS011;31100;55.848;37.636;2022-12-24T08:58:32;22.85;;;12.35;;
45366;SDS011;31100;55.848;37.636;2022-12-24T09:00:57;24.77;;;13.80;;
45366;SDS011;31100;55.848;37.636;2022-12-24T09:03:23;18.48;;;10.82;;
45366;SDS011;31100;55.848;37.636;2022-12-24T09:05:49;17.00;;;10.20;;
45366;SDS011;31100;55.848;37.636;2022-12-24T09:08:14;19.60;;;9.85;;
45366;SDS011;31100;55.848;37.636;2022-12-24T09:10:40;19.20;;;11.20;;
45366;SDS011;31100;55.848;37.636;2022-12-24T09:13:05;14.63;;;8.95;;
45366;SDS011;31100;55.848;37.636;2022-12-24T09:15:31;12.55;;;8.25;;
45366;SDS011;31100;55.848;37.636;2022-12-24T09:17:56;18.45;;;8.75;;
45366;SDS011;31100;55.848;37.636;2022-12-24T09:20:22;14.40;;;8.02;;
45366;SDS011;31100;55.848;37.636;2022-12-24T09:22:47;15.20;;;8.48;;
45366;SDS011;31100;55.848;37.636;2022-12-24T09:25:13;16.17;;;9.13;;
45366;SDS011;31100;55.848;37.636;2022-12-24T09:27:38;19.73;;;12.27;;
45366;SDS011;31100;55.848;37.636;2022-12-24T09:30:05;18.95;;;11.00;;
45366;SDS011;31100;55.848;37.636;2022-12-24T09:32:31;16.77;;;10.45;;
45366;SDS011;31100;55.848;37.636;2022-12-24T09:34:57;21.00;;;10.02;;
45366;SDS011;31100;55.848;37.636;2022-12-24T09:37:22;15.18;;;8.32;;
45366;SDS011;31100;55.848;37.636;2022-12-24T09:39:48;12.05;;;8.73;;
45366;SDS011;31100;55.848;37.636;2022-12-24T09:45:00;17.05;;;8.90;;
45366;SDS011;31100;55.848;37.636;2022-12-24T09:47:34;12.73;;;8.80;;
45366;SDS011;31100;55.848;37.636;2022-12-24T09:50:06;26.35;;;15.13;;
45366;SDS011;31100;55.848;37.636;2022-12-24T09:52:48;18.70;;;10.35;;
45366;SDS011;31100;55.848;37.636;2022-12-24T09:55:31;14.73;;;8.95;;
45366;SDS011;31100;55.848;37.636;2022-12-24T09:57:59;17.50;;;9.93;;
45366;SDS011;31100;55.848;37.636;2022-12-24T10:00:26;16.25;;;9.32;;
45366;SDS011;31100;55.848;37.636;2022-12-24T10:02:53;20.23;;;10.85;;
45366;SDS011;31100;55.848;37.636;2022-12-24T10:05:26;22.05;;;11.40;;
45366;SDS011;31100;55.848;37.636;2022-12-24T10:10:55;16.20;;;10.38;;
45366;SDS011;31100;55.848;37.636;2022-12-24T10:16:22;17.63;;;10.02;;
45366;SDS011;31100;55.848;37.636;2022-12-24T10:19:02;16.33;;;9.63;;
45366;SDS011;31100;55.848;37.636;2022-12-24T10:21:48;22.48;;;10.45;;
45366;SDS011;31100;55.848;37.636;2022-12-24T10:25:17;14.52;;;8.43;;
45366;SDS011;31100;55.848;37.636;2022-12-24T10:27:23;16.85;;;9.38;;
45366;SDS011;31100;55.848;37.636;2022-12-24T10:29:54;15.98;;;8.65;;
45366;SDS011;31100;55.848;37.636;2022-12-24T10:32:41;13.77;;;8.73;;
45366;SDS011;31100;55.848;37.636;2022-12-24T10:35:15;16.63;;;8.60;;
45366;SDS011;31100;55.848;37.636;2022-12-24T10:37:43;13.88;;;9.02;;
45366;SDS011;31100;55.848;37.636;2022-12-24T10:42:56;14.27;;;8.98;;
45366;SDS011;31100;55.848;37.636;2022-12-24T10:45:23;13.45;;;8.88;;
45366;SDS011;31100;55.848;37.636;2022-12-24T10:47:51;13.25;;;8.50;;
45366;SDS011;31100;55.848;37.636;2022-12-24T10:50:25;14.60;;;8.75;;
45366;SDS011;31100;55.848;37.636;2022-12-24T10:52:54;13.25;;;7.82;;
45366;SDS011;31100;55.848;37.636;2022-12-24T10:55:24;13.43;;;8.32;;
45366;SDS011;31100;55.848;37.636;2022-12-24T10:58:02;11.85;;;7.93;;
45366;SDS011;31100;55.848;37.636;2022-12-24T11:00:30;10.07;;;7.28;;
45366;SDS011;31100;55.848;37.636;2022-12-24T11:03:07;9.02;;;6.30;;
45366;SDS011;31100;55.848;37.636;2022-12-24T11:06:07;12.25;;;7.25;;
45366;SDS011;31100;55.848;37.636;2022-12-24T11:08:36;9.68;;;6.03;;
45366;SDS011;31100;55.848;37.636;2022-12-24T11:11:06;13.13;;;6.82;;
45366;SDS011;31100;55.848;37.636;2022-12-24T11:13:38;8.70;;;6.10;;
45366;SDS011;31100;55.848;37.636;2022-12-24T11:16:16;9.45;;;6.70;;
45366;SDS011;31100;55.848;37.636;2022-12-24T11:18:50;11.35;;;7.47;;
45366;SDS011;31100;55.848;37.636;2022-12-24T11:22:01;13.48;;;7.90;;
45366;SDS011;31100;55.848;37.636;2022-12-24T11:26:38;12.18;;;6.93;;
45366;SDS011;31100;55.848;37.636;2022-12-24T11:29:13;10.77;;;6.72;;
45366;SDS011;31100;55.848;37.636;2022-12-24T11:31:40;13.00;;;7.57;;
45366;SDS011;31100;55.848;37.636;2022-12-24T11:34:26;12.95;;;7.80;;
45366;SDS011;31100;55.848;37.636;2022-12-24T11:36:53;14.65;;;9.23;;
45366;SDS011;31100;55.848;37.636;2022-12-24T11:39:41;10.25;;;6.13;;
45366;SDS011;31100;55.848;37.636;2022-12-24T11:42:31;12.07;;;7.03;;
45366;SDS011;31100;55.848;37.636;2022-12-24T11:45:21;10.32;;;6.68;;
45366;SDS011;31100;55.848;37.636;2022-12-24T11:47:48;10.65;;;6.43;;
45366;SDS011;31100;55.848;37.636;2022-12-24T11:50:28;8.07;;;5.65;;
45366;SDS011;31100;55.848;37.636;2022-12-24T12:01:04;8.57;;;6.03;;
45366;SDS011;31100;55.848;37.636;2022-12-24T12:03:39;11.77;;;6.85;;
45366;SDS011;31100;55.848;37.636;2022-12-24T12:06:34;9.52;;;6.32;;
45366;SDS011;31100;55.848;37.636;2022-12-24T12:09:09;10.75;;;6.28;;
45366;SDS011;31100;55.848;37.636;2022-12-24T12:11:37;15.00;;;8.90;;
45366;SDS011;31100;55.848;37.636;2022-12-24T12:14:05;10.05;;;6.22;;
45366;SDS011;31100;55.848;37.636;2022-12-24T12:19:47;11.18;;;6.20;;
45366;SDS011;31100;55.848;37.636;2022-12-24T12:22:27;11.05;;;6.60;;
45366;SDS011;31100;55.848;37.636;2022-12-24T12:25:03;10.10;;;5.60;;
45366;SDS011;31100;55.848;37.636;2022-12-24T12:27:31;9.27;;;6.50;;
45366;SDS011;31100;55.848;37.636;2022-12-24T12:30:01;10.88;;;7.07;;
45366;SDS011;31100;55.848;37.636;2022-12-24T12:35:12;9.77;;;6.35;;
45366;SDS011;31100;55.848;37.636;2022-12-24T12:37:47;17.98;;;8.70;;
45366;SDS011;31100;55.848;37.636;2022-12-24T12:40:19;10.60;;;6.00;;
45366;SDS011;31100;55.848;37.636;2022-12-24T12:42:52;17.70;;;6.15;;
45366;SDS011;31100;55.848;37.636;2022-12-24T12:45:48;8.50;;;5.25;;
45366;SDS011;31100;55.848;37.636;2022-12-24T12:50:56;10.15;;;6.40;;
45366;SDS011;31100;55.848;37.636;2022-12-24T12:56:46;9.45;;;5.30;;
45366;SDS011;31100;55.848;37.636;2022-12-24T12:59:24;9.73;;;5.70;;
45366;SDS011;31100;55.848;37.636;2022-12-24T13:20:41;9.73;;;5.25;;
45366;SDS011;31100;55.848;37.636;2022-12-24T13:23:12;7.93;;;5.50;;
45366;SDS011;31100;55.848;37.636;2022-12-24T13:25:43;13.50;;;8.05;;
45366;SDS011;31100;55.848;37.636;2022-12-24T13:36:01;7.60;;;5.65;;
45366;SDS011;31100;55.848;37.636;2022-12-24T13:38:33;9.63;;;5.95;;
45366;SDS011;31100;55.848;37.636;2022-12-24T13:49:28;10.40;;;6.25;;
45366;SDS011;31100;55.848;37.636;2022-12-24T14:00:21;9.32;;;5.78;;
45366;SDS011;31100;55.848;37.636;2022-12-24T14:03:51;9.05;;;5.82;;
45366;SDS011;31100;55.848;37.636;2022-12-24T14:05:54;10.75;;;5.40;;
45366;SDS011;31100;55.848;37.636;2022-12-24T14:14:27;12.10;;;6.82;;
45366;SDS011;31100;55.848;37.636;2022-12-24T14:16:57;11.13;;;6.20;;
45366;SDS011;31100;55.848;37.636;2022-12-24T14:19:46;8.43;;;5.75;;
45366;SDS011;31100;55.848;37.636;2022-12-24T14:22:19;22.58;;;12.75;;
45366;SDS011;31100;55.848;37.636;2022-12-24T14:24:58;9.32;;;6.68;;
45366;SDS011;31100;55.848;37.636;2022-12-24T14:27:42;16.02;;;8.98;;
45366;SDS011;31100;55.848;37.636;2022-12-24T14:30:19;13.77;;;8.05;;
45366;SDS011;31100;55.848;37.636;2022-12-24T14:32:45;11.65;;;6.35;;
45366;SDS011;31100;55.848;37.636;2022-12-24T14:35:16;14.10;;;8.30;;
45366;SDS011;31100;55.848;37.636;2022-12-24T14:37:55;9.55;;;6.43;;
45366;SDS011;31100;55.848;37.636;2022-12-24T14:40:30;10.93;;;7.20;;
45366;SDS011;31100;55.848;37.636;2022-12-24T14:51:25;31.42;;;19.38;;
45366;SDS011;31100;55.848;37.636;2022-12-24T14:56:25;19.13;;;12.80;;
45366;SDS011;31100;55.848;37.636;2022-12-24T14:58:51;17.42;;;11.93;;
45366;SDS011;31100;55.848;37.636;2022-12-24T15:03:42;14.82;;;8.73;;
45366;SDS011;31100;55.848;37.636;2022-12-24T15:06:08;14.10;;;8.73;;
45366;SDS011;31100;55.848;37.636;2022-12-24T15:08:37;12.90;;;8.25;;
45366;SDS011;31100;55.848;37.636;2022-12-24T15:11:08;10.68;;;6.65;;
45366;SDS011;31100;55.848;37.636;2022-12-24T15:13:42;12.50;;;8.00;;
45366;SDS011;31100;55.848;37.636;2022-12-24T15:16:09;12.60;;;7.72;;
45366;SDS011;31100;55.848;37.636;2022-12-24T15:18:43;13.48;;;8.60;;
45366;SDS011;31100;55.848;37.636;2022-12-24T15:21:19;13.93;;;9.32;;
45366;SDS011;31100;55.848;37.636;2022-12-24T15:23:55;13.68;;;8.57;;
45366;SDS011;31100;55.848;37.636;2022-12-24T15:26:31;17.60;;;9.77;;
45366;SDS011;31100;55.848;37.636;2022-12-24T15:29:00;15.55;;;10.27;;
45366;SDS011;31100;55.848;37.636;2022-12-24T15:31:26;12.52;;;9.13;;
45366;SDS011;31100;55.848;37.636;2022-12-24T15:33:53;14.15;;;9.63;;
45366;SDS011;31100;55.848;37.636;2022-12-24T15:36:25;12.43;;;8.60;;
45366;SDS011;31100;55.848;37.636;2022-12-24T15:38:54;12.73;;;8.38;;
45366;SDS011;31100;55.848;37.636;2022-12-24T15:41:40;14.57;;;9.38;;
45366;SDS011;31100;55.848;37.636;2022-12-24T15:44:26;14.57;;;8.93;;
45366;SDS011;31100;55.848;37.636;2022-12-24T15:47:02;13.13;;;9.48;;
45366;SDS011;31100;55.848;37.636;2022-12-24T15:49:29;12.65;;;9.38;;
45366;SDS011;31100;55.848;37.636;2022-12-24T15:52:30;11.23;;;7.82;;
45366;SDS011;31100;55.848;37.636;2022-12-24T15:54:49;13.20;;;7.90;;
45366;SDS011;31100;55.848;37.636;2022-12-24T15:57:22;13.15;;;8.05;;
45366;SDS011;31100;55.848;37.636;2022-12-24T15:59:50;13.10;;;8.50;;
45366;SDS011;31100;55.848;37.636;2022-12-24T16:02:30;13.75;;;8.52;;
45366;SDS011;31100;55.848;37.636;2022-12-24T16:08:06;11.70;;;7.72;;
45366;SDS011;31100;55.848;37.636;2022-12-24T16:10:47;13.02;;;8.52;;
45366;SDS011;31100;55.848;37.636;2022-12-24T16:13:23;11.75;;;7.47;;
45366;SDS011;31100;55.848;37.636;2022-12-24T16:15:59;10.70;;;7.90;;
45366;SDS011;31100;55.848;37.636;2022-12-24T16:18:31;14.05;;;8.93;;
45366;SDS011;31100;55.848;37.636;2022-12-24T16:20:58;10.85;;;7.55;;
45366;SDS011;31100;55.848;37.636;2022-12-24T16:23:26;10.77;;;7.55;;
45366;SDS011;31100;55.848;37.636;2022-12-24T16:25:56;10.23;;;7.25;;
45366;SDS011;31100;55.848;37.636;2022-12-24T16:28:22;11.45;;;7.85;;